sensor_id;sensor_type;location;lat;lon;timestamp;pressure;altitude;pressure_sealevel;temperature
62107;BMP280;48087;32.600;-97.100;2022-12-05T00:00:45;;;;10.722114999999999
62107;BMP280;48087;32.600;-97.100;2022-12-05T00:05:49;;;;10.66656
62107;BMP280;48087;32.600;-97.100;2022-12-05T00:10:53;;;;10.722114999999999
62107;BMP280;48087;32.600;-97.100;2022-12-05T00:15:58;;;;10.722114999999999
62107;BMP280;48087;32.600;-97.100;2022-12-05T00:21:01;;;;10.66656
62107;BMP280;48087;32.600;-97.100;2022-12-05T00:26:05;;;;10.66656
62107;BMP280;48087;32.600;-97.100;2022-12-05T00:31:10;;;;10.611005
62107;BMP280;48087;32.600;-97.100;2022-12-05T00:36:14;;;;10.611005
62107;BMP280;48087;32.600;-97.100;2022-12-05T00:41:18;;;;10.611005
62107;BMP280;48087;32.600;-97.100;2022-12-05T00:46:22;;;;10.611005
62107;BMP280;48087;32.600;-97.100;2022-12-05T00:51:26;;;;10.611005
62107;BMP280;48087;32.600;-97.100;2022-12-05T00:56:30;;;;10.611005
62107;BMP280;48087;32.600;-97.100;2022-12-05T01:01:35;;;;10.611005
62107;BMP280;48087;32.600;-97.100;2022-12-05T01:06:37;;;;10.611005
62107;BMP280;48087;32.600;-97.100;2022-12-05T01:11:41;;;;10.611005
62107;BMP280;48087;32.600;-97.100;2022-12-05T01:16:46;;;;10.611005
62107;BMP280;48087;32.600;-97.100;2022-12-05T01:21:49;;;;10.66656
62107;BMP280;48087;32.600;-97.100;2022-12-05T01:26:53;;;;10.66656
62107;BMP280;48087;32.600;-97.100;2022-12-05T01:31:58;;;;10.66656
62107;BMP280;48087;32.600;-97.100;2022-12-05T01:37:01;;;;10.66656
62107;BMP280;48087;32.600;-97.100;2022-12-05T01:42:05;;;;10.55545
62107;BMP280;48087;32.600;-97.100;2022-12-05T01:47:09;;;;10.55545
62107;BMP280;48087;32.600;-97.100;2022-12-05T01:52:13;;;;10.611005
62107;BMP280;48087;32.600;-97.100;2022-12-05T01:57:17;;;;10.611005
62107;BMP280;48087;32.600;-97.100;2022-12-05T02:02:21;;;;10.55545
62107;BMP280;48087;32.600;-97.100;2022-12-05T02:07:25;;;;10.55545
62107;BMP280;48087;32.600;-97.100;2022-12-05T02:12:29;;;;10.55545
62107;BMP280;48087;32.600;-97.100;2022-12-05T02:17:36;;;;10.611005
62107;BMP280;48087;32.600;-97.100;2022-12-05T02:22:50;;;;10.55545
62107;BMP280;48087;32.600;-97.100;2022-12-05T02:27:45;;;;10.55545
62107;BMP280;48087;32.600;-97.100;2022-12-05T02:32:48;;;;10.55545
62107;BMP280;48087;32.600;-97.100;2022-12-05T02:37:50;;;;10.55545
62107;BMP280;48087;32.600;-97.100;2022-12-05T02:42:54;;;;10.499894999999999
62107;BMP280;48087;32.600;-97.100;2022-12-05T02:47:58;;;;10.499894999999999
62107;BMP280;48087;32.600;-97.100;2022-12-05T02:53:02;;;;10.499894999999999
62107;BMP280;48087;32.600;-97.100;2022-12-05T02:58:06;;;;10.499894999999999
62107;BMP280;48087;32.600;-97.100;2022-12-05T03:03:11;;;;10.444339999999999
62107;BMP280;48087;32.600;-97.100;2022-12-05T03:08:14;;;;10.499894999999999
62107;BMP280;48087;32.600;-97.100;2022-12-05T03:13:17;;;;10.499894999999999
62107;BMP280;48087;32.600;-97.100;2022-12-05T03:18:22;;;;10.499894999999999
62107;BMP280;48087;32.600;-97.100;2022-12-05T03:23:26;;;;10.499894999999999
62107;BMP280;48087;32.600;-97.100;2022-12-05T03:28:30;;;;10.499894999999999
62107;BMP280;48087;32.600;-97.100;2022-12-05T03:33:33;;;;10.499894999999999
62107;BMP280;48087;32.600;-97.100;2022-12-05T03:38:39;;;;10.499894999999999
62107;BMP280;48087;32.600;-97.100;2022-12-05T03:43:42;;;;10.55545
62107;BMP280;48087;32.600;-97.100;2022-12-05T03:48:46;;;;10.499894999999999
62107;BMP280;48087;32.600;-97.100;2022-12-05T03:53:50;;;;10.55545
62107;BMP280;48087;32.600;-97.100;2022-12-05T03:58:54;;;;10.55545
62107;BMP280;48087;32.600;-97.100;2022-12-05T04:03:58;;;;10.55545
62107;BMP280;48087;32.600;-97.100;2022-12-05T04:09:01;;;;10.55545
62107;BMP280;48087;32.600;-97.100;2022-12-05T04:14:05;;;;10.55545
62107;BMP280;48087;32.600;-97.100;2022-12-05T04:19:11;;;;10.55545
62107;BMP280;48087;32.600;-97.100;2022-12-05T04:24:13;;;;10.55545
62107;BMP280;48087;32.600;-97.100;2022-12-05T04:29:20;;;;10.611005
62107;BMP280;48087;32.600;-97.100;2022-12-05T04:34:21;;;;10.55545
62107;BMP280;48087;32.600;-97.100;2022-12-05T04:39:26;;;;10.55545
62107;BMP280;48087;32.600;-97.100;2022-12-05T04:44:29;;;;10.55545
62107;BMP280;48087;32.600;-97.100;2022-12-05T04:49:33;;;;10.611005
62107;BMP280;48087;32.600;-97.100;2022-12-05T04:54:37;;;;10.611005
62107;BMP280;48087;32.600;-97.100;2022-12-05T04:59:41;;;;10.66656
62107;BMP280;48087;32.600;-97.100;2022-12-05T05:04:45;;;;10.66656
62107;BMP280;48087;32.600;-97.100;2022-12-05T05:09:48;;;;10.66656
62107;BMP280;48087;32.600;-97.100;2022-12-05T05:14:52;;;;10.722114999999999
62107;BMP280;48087;32.600;-97.100;2022-12-05T05:19:57;;;;10.722114999999999
62107;BMP280;48087;32.600;-97.100;2022-12-05T05:25:00;;;;10.722114999999999
62107;BMP280;48087;32.600;-97.100;2022-12-05T05:30:05;;;;10.722114999999999
62107;BMP280;48087;32.600;-97.100;2022-12-05T05:35:09;;;;10.777669999999999
62107;BMP280;48087;32.600;-97.100;2022-12-05T05:40:13;;;;10.777669999999999
62107;BMP280;48087;32.600;-97.100;2022-12-05T05:45:16;;;;10.777669999999999
62107;BMP280;48087;32.600;-97.100;2022-12-05T05:50:20;;;;10.777669999999999
62107;BMP280;48087;32.600;-97.100;2022-12-05T05:55:24;;;;10.777669999999999
62107;BMP280;48087;32.600;-97.100;2022-12-05T06:00:28;;;;10.833225
62107;BMP280;48087;32.600;-97.100;2022-12-05T06:05:32;;;;10.833225
62107;BMP280;48087;32.600;-97.100;2022-12-05T06:10:37;;;;10.833225
62107;BMP280;48087;32.600;-97.100;2022-12-05T06:15:40;;;;10.833225
62107;BMP280;48087;32.600;-97.100;2022-12-05T06:20:50;;;;10.944335
62107;BMP280;48087;32.600;-97.100;2022-12-05T06:25:48;;;;10.999889999999999
62107;BMP280;48087;32.600;-97.100;2022-12-05T06:30:53;;;;10.999889999999999
62107;BMP280;48087;32.600;-97.100;2022-12-05T06:36:05;;;;10.999889999999999
62107;BMP280;48087;32.600;-97.100;2022-12-05T06:41:03;;;;10.999889999999999
62107;BMP280;48087;32.600;-97.100;2022-12-05T06:46:04;;;;10.999889999999999
62107;BMP280;48087;32.600;-97.100;2022-12-05T06:51:09;;;;11.055444999999999
62107;BMP280;48087;32.600;-97.100;2022-12-05T06:56:13;;;;11.111
62107;BMP280;48087;32.600;-97.100;2022-12-05T07:01:17;;;;11.055444999999999
62107;BMP280;48087;32.600;-97.100;2022-12-05T07:06:20;;;;11.111
62107;BMP280;48087;32.600;-97.100;2022-12-05T07:11:24;;;;11.166555
62107;BMP280;48087;32.600;-97.100;2022-12-05T07:16:28;;;;11.166555
62107;BMP280;48087;32.600;-97.100;2022-12-05T07:21:32;;;;11.166555
62107;BMP280;48087;32.600;-97.100;2022-12-05T07:26:36;;;;11.277664999999999
62107;BMP280;48087;32.600;-97.100;2022-12-05T07:31:40;;;;11.22211
62107;BMP280;48087;32.600;-97.100;2022-12-05T07:36:44;;;;11.22211
62107;BMP280;48087;32.600;-97.100;2022-12-05T07:41:48;;;;11.22211
62107;BMP280;48087;32.600;-97.100;2022-12-05T07:46:52;;;;11.333219999999999
62107;BMP280;48087;32.600;-97.100;2022-12-05T07:51:56;;;;11.388774999999999
62107;BMP280;48087;32.600;-97.100;2022-12-05T07:57:00;;;;11.44433
62107;BMP280;48087;32.600;-97.100;2022-12-05T08:02:04;;;;11.44433
62107;BMP280;48087;32.600;-97.100;2022-12-05T08:07:09;;;;11.499885
62107;BMP280;48087;32.600;-97.100;2022-12-05T08:12:12;;;;11.555439999999999
62107;BMP280;48087;32.600;-97.100;2022-12-05T08:17:15;;;;11.666549999999999
62107;BMP280;48087;32.600;-97.100;2022-12-05T08:22:20;;;;11.722105
62107;BMP280;48087;32.600;-97.100;2022-12-05T08:27:24;;;;11.722105
62107;BMP280;48087;32.600;-97.100;2022-12-05T08:32:28;;;;11.777660000000001
62107;BMP280;48087;32.600;-97.100;2022-12-05T08:37:32;;;;11.833214999999997
62107;BMP280;48087;32.600;-97.100;2022-12-05T08:42:36;;;;11.88877
62107;BMP280;48087;32.600;-97.100;2022-12-05T08:47:39;;;;11.944325
62107;BMP280;48087;32.600;-97.100;2022-12-05T08:52:44;;;;12.055435000000001
62107;BMP280;48087;32.600;-97.100;2022-12-05T08:57:47;;;;12.110989999999997
62107;BMP280;48087;32.600;-97.100;2022-12-05T09:02:52;;;;12.166545
62107;BMP280;48087;32.600;-97.100;2022-12-05T09:07:56;;;;12.2221
62107;BMP280;48087;32.600;-97.100;2022-12-05T09:13:00;;;;12.2221
62107;BMP280;48087;32.600;-97.100;2022-12-05T09:18:03;;;;12.277655000000001
62107;BMP280;48087;32.600;-97.100;2022-12-05T09:23:08;;;;12.333210000000001
62107;BMP280;48087;32.600;-97.100;2022-12-05T09:28:11;;;;12.388764999999998
62107;BMP280;48087;32.600;-97.100;2022-12-05T09:33:16;;;;12.388764999999998
62107;BMP280;48087;32.600;-97.100;2022-12-05T09:38:20;;;;12.499875
62107;BMP280;48087;32.600;-97.100;2022-12-05T09:43:24;;;;12.499875
62107;BMP280;48087;32.600;-97.100;2022-12-05T09:48:27;;;;12.555430000000001
62107;BMP280;48087;32.600;-97.100;2022-12-05T09:53:33;;;;12.610985000000001
62107;BMP280;48087;32.600;-97.100;2022-12-05T09:58:39;;;;12.666539999999998
62107;BMP280;48087;32.600;-97.100;2022-12-05T10:03:40;;;;12.722095
62107;BMP280;48087;32.600;-97.100;2022-12-05T10:08:50;;;;12.722095
62107;BMP280;48087;32.600;-97.100;2022-12-05T10:13:51;;;;12.77765
62107;BMP280;48087;32.600;-97.100;2022-12-05T10:18:52;;;;12.77765
62107;BMP280;48087;32.600;-97.100;2022-12-05T10:23:57;;;;12.833205000000001
62107;BMP280;48087;32.600;-97.100;2022-12-05T10:29:02;;;;12.888760000000001
62107;BMP280;48087;32.600;-97.100;2022-12-05T10:34:05;;;;12.888760000000001
62107;BMP280;48087;32.600;-97.100;2022-12-05T10:39:09;;;;12.833205000000001
62107;BMP280;48087;32.600;-97.100;2022-12-05T10:44:13;;;;12.833205000000001
62107;BMP280;48087;32.600;-97.100;2022-12-05T10:49:17;;;;12.833205000000001
62107;BMP280;48087;32.600;-97.100;2022-12-05T10:54:22;;;;12.833205000000001
62107;BMP280;48087;32.600;-97.100;2022-12-05T10:59:25;;;;12.833205000000001
62107;BMP280;48087;32.600;-97.100;2022-12-05T11:04:29;;;;12.833205000000001
62107;BMP280;48087;32.600;-97.100;2022-12-05T11:09:32;;;;12.944314999999998
62107;BMP280;48087;32.600;-97.100;2022-12-05T11:14:35;;;;12.99987
62107;BMP280;48087;32.600;-97.100;2022-12-05T11:19:40;;;;12.99987
62107;BMP280;48087;32.600;-97.100;2022-12-05T11:24:44;;;;13.055425
62107;BMP280;48087;32.600;-97.100;2022-12-05T11:30:08;;;;13.11098
62107;BMP280;48087;32.600;-97.100;2022-12-05T11:34:52;;;;13.11098
62107;BMP280;48087;32.600;-97.100;2022-12-05T11:39:55;;;;13.166535000000001
62107;BMP280;48087;32.600;-97.100;2022-12-05T11:45:14;;;;13.166535000000001
62107;BMP280;48087;32.600;-97.100;2022-12-05T11:50:08;;;;13.277645
62107;BMP280;48087;32.600;-97.100;2022-12-05T11:55:11;;;;13.277645
62107;BMP280;48087;32.600;-97.100;2022-12-05T12:00:14;;;;13.277645
62107;BMP280;48087;32.600;-97.100;2022-12-05T12:05:16;;;;13.3332
62107;BMP280;48087;32.600;-97.100;2022-12-05T12:10:21;;;;13.388755
62107;BMP280;48087;32.600;-97.100;2022-12-05T12:15:29;;;;13.444310000000002
62107;BMP280;48087;32.600;-97.100;2022-12-05T12:20:32;;;;13.499864999999998
62107;BMP280;48087;32.600;-97.100;2022-12-05T12:25:34;;;;13.499864999999998
62107;BMP280;48087;32.600;-97.100;2022-12-05T12:30:38;;;;13.55542
62107;BMP280;48087;32.600;-97.100;2022-12-05T12:35:40;;;;13.610975
62107;BMP280;48087;32.600;-97.100;2022-12-05T12:40:46;;;;13.610975
62107;BMP280;48087;32.600;-97.100;2022-12-05T12:45:50;;;;13.66653
62107;BMP280;48087;32.600;-97.100;2022-12-05T12:50:51;;;;13.66653
62107;BMP280;48087;32.600;-97.100;2022-12-05T12:55:57;;;;13.722085000000002
62107;BMP280;48087;32.600;-97.100;2022-12-05T13:01:00;;;;13.777639999999998
62107;BMP280;48087;32.600;-97.100;2022-12-05T13:06:03;;;;13.777639999999998
62107;BMP280;48087;32.600;-97.100;2022-12-05T13:11:08;;;;13.833194999999998
62107;BMP280;48087;32.600;-97.100;2022-12-05T13:16:12;;;;13.944305
62107;BMP280;48087;32.600;-97.100;2022-12-05T13:21:15;;;;13.944305
62107;BMP280;48087;32.600;-97.100;2022-12-05T13:26:19;;;;14.055414999999998
62107;BMP280;48087;32.600;-97.100;2022-12-05T13:31:33;;;;14.110969999999998
62107;BMP280;48087;32.600;-97.100;2022-12-05T13:36:27;;;;14.277635000000002
62107;BMP280;48087;32.600;-97.100;2022-12-05T13:41:39;;;;14.333189999999998
62107;BMP280;48087;32.600;-97.100;2022-12-05T13:46:35;;;;14.388744999999998
62107;BMP280;48087;32.600;-97.100;2022-12-05T13:51:40;;;;14.4443
62107;BMP280;48087;32.600;-97.100;2022-12-05T13:56:46;;;;14.4443
62107;BMP280;48087;32.600;-97.100;2022-12-05T14:01:47;;;;14.499855
62107;BMP280;48087;32.600;-97.100;2022-12-05T14:06:58;;;;14.499855
62107;BMP280;48087;32.600;-97.100;2022-12-05T14:12:28;;;;14.499855
62107;BMP280;48087;32.600;-97.100;2022-12-05T14:16:59;;;;14.555410000000002
62107;BMP280;48087;32.600;-97.100;2022-12-05T14:22:07;;;;14.666519999999998
62107;BMP280;48087;32.600;-97.100;2022-12-05T14:27:09;;;;14.722075
62107;BMP280;48087;32.600;-97.100;2022-12-05T14:32:15;;;;14.722075
62107;BMP280;48087;32.600;-97.100;2022-12-05T14:37:22;;;;14.77763
62107;BMP280;48087;32.600;-97.100;2022-12-05T14:42:37;;;;14.77763
62107;BMP280;48087;32.600;-97.100;2022-12-05T14:47:45;;;;14.888739999999999
62107;BMP280;48087;32.600;-97.100;2022-12-05T14:52:43;;;;15.055405
62107;BMP280;48087;32.600;-97.100;2022-12-05T14:57:47;;;;15.166514999999999
62107;BMP280;48087;32.600;-97.100;2022-12-05T15:02:52;;;;15.33318
62107;BMP280;48087;32.600;-97.100;2022-12-05T15:07:56;;;;15.555399999999999
62107;BMP280;48087;32.600;-97.100;2022-12-05T15:13:01;;;;15.777619999999999
62107;BMP280;48087;32.600;-97.100;2022-12-05T15:18:08;;;;15.999839999999999
62107;BMP280;48087;32.600;-97.100;2022-12-05T15:23:38;;;;16.277614999999997
62107;BMP280;48087;32.600;-97.100;2022-12-05T15:28:16;;;;16.55539
62107;BMP280;48087;32.600;-97.100;2022-12-05T15:33:15;;;;16.944275
62107;BMP280;48087;32.600;-97.100;2022-12-05T15:38:19;;;;17.277605
62107;BMP280;48087;32.600;-97.100;2022-12-05T15:43:25;;;;17.499825
62107;BMP280;48087;32.600;-97.100;2022-12-05T15:48:27;;;;17.7776
62107;BMP280;48087;32.600;-97.100;2022-12-05T15:53:32;;;;18.166485
62107;BMP280;48087;32.600;-97.100;2022-12-05T15:58:35;;;;18.277595
62107;BMP280;48087;32.600;-97.100;2022-12-05T16:03:40;;;;18.499814999999998
62107;BMP280;48087;32.600;-97.100;2022-12-05T16:08:43;;;;18.722035
62107;BMP280;48087;32.600;-97.100;2022-12-05T16:13:48;;;;18.944254999999995
62107;BMP280;48087;32.600;-97.100;2022-12-05T16:18:52;;;;19.222029999999997
62107;BMP280;48087;32.600;-97.100;2022-12-05T16:23:58;;;;19.499804999999995
62107;BMP280;48087;32.600;-97.100;2022-12-05T16:28:59;;;;19.722025
62107;BMP280;48087;32.600;-97.100;2022-12-05T16:34:03;;;;19.777579999999997
62107;BMP280;48087;32.600;-97.100;2022-12-05T16:39:12;;;;19.777579999999997
62107;BMP280;48087;32.600;-97.100;2022-12-05T16:44:32;;;;19.833135000000002
62107;BMP280;48087;32.600;-97.100;2022-12-05T16:49:17;;;;20.055354999999995
62107;BMP280;48087;32.600;-97.100;2022-12-05T16:54:19;;;;20.333129999999997
62107;BMP280;48087;32.600;-97.100;2022-12-05T16:59:23;;;;20.55535
62107;BMP280;48087;32.600;-97.100;2022-12-05T17:04:27;;;;20.777570000000004
62107;BMP280;48087;32.600;-97.100;2022-12-05T17:09:30;;;;21.33312
62107;BMP280;48087;32.600;-97.100;2022-12-05T17:14:34;;;;21.999779999999998
62107;BMP280;48087;32.600;-97.100;2022-12-05T17:19:40;;;;21.444229999999997
62107;BMP280;48087;32.600;-97.100;2022-12-05T17:24:42;;;;21.166454999999996
62107;BMP280;48087;32.600;-97.100;2022-12-05T17:29:47;;;;21.166454999999996
62107;BMP280;48087;32.600;-97.100;2022-12-05T17:34:50;;;;20.999789999999997
62107;BMP280;48087;32.600;-97.100;2022-12-05T17:39:54;;;;21.166454999999996
62107;BMP280;48087;32.600;-97.100;2022-12-05T17:44:58;;;;21.22201
62107;BMP280;48087;32.600;-97.100;2022-12-05T17:50:04;;;;21.499785000000003
62107;BMP280;48087;32.600;-97.100;2022-12-05T17:55:09;;;;21.555339999999998
62107;BMP280;48087;32.600;-97.100;2022-12-05T18:00:10;;;;21.944225
62107;BMP280;48087;32.600;-97.100;2022-12-05T18:05:14;;;;22.33311
62107;BMP280;48087;32.600;-97.100;2022-12-05T18:10:21;;;;22.833104999999996
62107;BMP280;48087;32.600;-97.100;2022-12-05T18:15:22;;;;23.221989999999998
62107;BMP280;48087;32.600;-97.100;2022-12-05T18:20:26;;;;23.388654999999996
62107;BMP280;48087;32.600;-97.100;2022-12-05T18:25:30;;;;23.555320000000002
62107;BMP280;48087;32.600;-97.100;2022-12-05T18:30:35;;;;23.610875
62107;BMP280;48087;32.600;-97.100;2022-12-05T18:35:39;;;;23.944204999999997
62107;BMP280;48087;32.600;-97.100;2022-12-05T18:40:42;;;;23.721985
62107;BMP280;48087;32.600;-97.100;2022-12-05T18:45:53;;;;23.499764999999996
62107;BMP280;48087;32.600;-97.100;2022-12-05T18:50:52;;;;23.499764999999996
62107;BMP280;48087;32.600;-97.100;2022-12-05T18:55:55;;;;23.721985
62107;BMP280;48087;32.600;-97.100;2022-12-05T19:01:02;;;;23.721985
62107;BMP280;48087;32.600;-97.100;2022-12-05T19:06:09;;;;23.666429999999995
62107;BMP280;48087;32.600;-97.100;2022-12-05T19:11:09;;;;23.610875
62107;BMP280;48087;32.600;-97.100;2022-12-05T19:16:11;;;;24.110870000000002
62107;BMP280;48087;32.600;-97.100;2022-12-05T19:21:17;;;;24.166425
62107;BMP280;48087;32.600;-97.100;2022-12-05T19:26:18;;;;23.833095000000004
62107;BMP280;48087;32.600;-97.100;2022-12-05T19:31:23;;;;24.221979999999995
62107;BMP280;48087;32.600;-97.100;2022-12-05T19:36:27;;;;25.221970000000002
62107;BMP280;48087;32.600;-97.100;2022-12-05T19:41:31;;;;25.610854999999997
62107;BMP280;48087;32.600;-97.100;2022-12-05T19:46:34;;;;26.22196
62107;BMP280;48087;32.600;-97.100;2022-12-05T19:51:39;;;;26.444179999999996
62107;BMP280;48087;32.600;-97.100;2022-12-05T19:56:42;;;;26.888620000000003
62107;BMP280;48087;32.600;-97.100;2022-12-05T20:01:46;;;;26.499735
62107;BMP280;48087;32.600;-97.100;2022-12-05T20:06:50;;;;26.610845
62107;BMP280;48087;32.600;-97.100;2022-12-05T20:11:53;;;;26.6664
62107;BMP280;48087;32.600;-97.100;2022-12-05T20:16:58;;;;26.944174999999998
62107;BMP280;48087;32.600;-97.100;2022-12-05T20:22:02;;;;26.999729999999996
62107;BMP280;48087;32.600;-97.100;2022-12-05T20:27:06;;;;26.944174999999998
62107;BMP280;48087;32.600;-97.100;2022-12-05T20:32:12;;;;27.277504999999998
62107;BMP280;48087;32.600;-97.100;2022-12-05T20:37:14;;;;27.277504999999998
62107;BMP280;48087;32.600;-97.100;2022-12-05T20:42:18;;;;27.388614999999998
62107;BMP280;48087;32.600;-97.100;2022-12-05T20:47:21;;;;27.499724999999998
62107;BMP280;48087;32.600;-97.100;2022-12-05T20:52:26;;;;27.499724999999998
62107;BMP280;48087;32.600;-97.100;2022-12-05T20:57:30;;;;27.721945
62107;BMP280;48087;32.600;-97.100;2022-12-05T21:02:33;;;;27.610835
62107;BMP280;48087;32.600;-97.100;2022-12-05T21:07:38;;;;27.7775
62107;BMP280;48087;32.600;-97.100;2022-12-05T21:12:41;;;;27.166395
62107;BMP280;48087;32.600;-97.100;2022-12-05T21:17:45;;;;27.833054999999995
62107;BMP280;48087;32.600;-97.100;2022-12-05T21:22:50;;;;27.7775
62107;BMP280;48087;32.600;-97.100;2022-12-05T21:27:53;;;;27.7775
62107;BMP280;48087;32.600;-97.100;2022-12-05T21:33:00;;;;27.388614999999998
62107;BMP280;48087;32.600;-97.100;2022-12-05T21:38:02;;;;27.277504999999998
62107;BMP280;48087;32.600;-97.100;2022-12-05T21:43:05;;;;27.166395
62107;BMP280;48087;32.600;-97.100;2022-12-05T21:48:10;;;;27.277504999999998
62107;BMP280;48087;32.600;-97.100;2022-12-05T21:53:14;;;;27.055285
62107;BMP280;48087;32.600;-97.100;2022-12-05T21:58:17;;;;26.999729999999996
62107;BMP280;48087;32.600;-97.100;2022-12-05T22:03:22;;;;26.833064999999998
62107;BMP280;48087;32.600;-97.100;2022-12-05T22:08:26;;;;26.77751
62107;BMP280;48087;32.600;-97.100;2022-12-05T22:13:30;;;;26.944174999999998
62107;BMP280;48087;32.600;-97.100;2022-12-05T22:18:33;;;;26.999729999999996
62107;BMP280;48087;32.600;-97.100;2022-12-05T22:23:37;;;;27.055285
62107;BMP280;48087;32.600;-97.100;2022-12-05T22:28:42;;;;26.833064999999998
62107;BMP280;48087;32.600;-97.100;2022-12-05T22:33:46;;;;26.77751
62107;BMP280;48087;32.600;-97.100;2022-12-05T22:38:49;;;;25.944185
62107;BMP280;48087;32.600;-97.100;2022-12-05T22:43:54;;;;25.44419
62107;BMP280;48087;32.600;-97.100;2022-12-05T22:48:57;;;;25.221970000000002
62107;BMP280;48087;32.600;-97.100;2022-12-05T22:54:03;;;;25.44419
62107;BMP280;48087;32.600;-97.100;2022-12-05T22:59:05;;;;25.221970000000002
62107;BMP280;48087;32.600;-97.100;2022-12-05T23:04:10;;;;24.777529999999995
62107;BMP280;48087;32.600;-97.100;2022-12-05T23:09:14;;;;24.555310000000002
62107;BMP280;48087;32.600;-97.100;2022-12-05T23:14:18;;;;24.33309
62107;BMP280;48087;32.600;-97.100;2022-12-05T23:19:21;;;;24.166425
62107;BMP280;48087;32.600;-97.100;2022-12-05T23:24:25;;;;23.999760000000002
62107;BMP280;48087;32.600;-97.100;2022-12-05T23:29:29;;;;23.77754
62107;BMP280;48087;32.600;-97.100;2022-12-05T23:34:35;;;;23.721985
62107;BMP280;48087;32.600;-97.100;2022-12-05T23:39:37;;;;23.555320000000002
62107;BMP280;48087;32.600;-97.100;2022-12-05T23:44:42;;;;23.333099999999998
62107;BMP280;48087;32.600;-97.100;2022-12-05T23:49:46;;;;23.277545000000003
62107;BMP280;48087;32.600;-97.100;2022-12-05T23:54:52;;;;23.055325
62107;BMP280;48087;32.600;-97.100;2022-12-05T23:59:53;;;;22.88866
